Terminal Aerodrome Forecast
Issued by NWS Central Illinois

Home | Current Version | Previous Version | Text Only | Print | Product List | Glossary On
Versions: 1 2 3 4 5 6 7 8 9 10 11 12 13 14 15 16 17 18 19
000
FTUS43 KILX 240500
TAFPIA
TAF
KPIA 240520Z 2406/2506 12010KT P6SM SCT120
     FM241400 15016G30KT P6SM BKN080
     FM241900 17018G28KT P6SM VCSH OVC050
     FM242300 18013G23KT 4SM -RA VCTS OVC035CB
     FM250500 14012KT P6SM VCSH OVC020=

USA.gov is the U.S. government's official web portal to all federal, state and local government web resources and services.